地図

経路データ

SID SEASON NUMBER BASIN SUBBASIN NAME ISO_TIME NATURE LAT LON WMO_WIND WMO_PRES WMO_AGENCY TRACK_TYPE DIST2LAND LANDFALL IFLAG USA_AGENCY USA_ATCF_ID USA_LAT USA_LON USA_RECORD USA_STATUS USA_WIND USA_PRES USA_SSHS USA_R34_NE USA_R34_SE USA_R34_SW USA_R34_NW USA_R50_NE USA_R50_SE USA_R50_SW USA_R50_NW USA_R64_NE USA_R64_SE USA_R64_SW USA_R64_NW USA_POCI USA_ROCI USA_RMW USA_EYE TOKYO_LAT TOKYO_LON TOKYO_GRADE TOKYO_WIND TOKYO_PRES TOKYO_R50_DIR TOKYO_R50_LONG TOKYO_R50_SHORT TOKYO_R30_DIR TOKYO_R30_LONG TOKYO_R30_SHORT TOKYO_LAND CMA_LAT CMA_LON CMA_CAT CMA_WIND CMA_PRES HKO_LAT HKO_LON HKO_CAT HKO_WIND HKO_PRES NEWDELHI_LAT NEWDELHI_LON NEWDELHI_GRADE NEWDELHI_WIND NEWDELHI_PRES NEWDELHI_CI NEWDELHI_DP NEWDELHI_POCI REUNION_LAT REUNION_LON REUNION_TYPE REUNION_WIND REUNION_PRES REUNION_TNUM REUNION_CI REUNION_RMW REUNION_R34_NE REUNION_R34_SE REUNION_R34_SW REUNION_R34_NW REUNION_R50_NE REUNION_R50_SE REUNION_R50_SW REUNION_R50_NW REUNION_R64_NE REUNION_R64_SE REUNION_R64_SW REUNION_R64_NW BOM_LAT BOM_LON BOM_TYPE BOM_WIND BOM_PRES BOM_TNUM BOM_CI BOM_RMW BOM_R34_NE BOM_R34_SE BOM_R34_SW BOM_R34_NW BOM_R50_NE BOM_R50_SE BOM_R50_SW BOM_R50_NW BOM_R64_NE BOM_R64_SE BOM_R64_SW BOM_R64_NW BOM_ROCI BOM_POCI BOM_EYE BOM_POS_METHOD BOM_PRES_METHOD NADI_LAT NADI_LON NADI_CAT NADI_WIND NADI_PRES WELLINGTON_LAT WELLINGTON_LON WELLINGTON_WIND WELLINGTON_PRES DS824_LAT DS824_LON DS824_STAGE DS824_WIND DS824_PRES TD9636_LAT TD9636_LON TD9636_STAGE TD9636_WIND TD9636_PRES TD9635_LAT TD9635_LON TD9635_WIND TD9635_PRES TD9635_ROCI NEUMANN_LAT NEUMANN_LON NEUMANN_CLASS NEUMANN_WIND NEUMANN_PRES MLC_LAT MLC_LON MLC_CLASS MLC_WIND MLC_PRES USA_GUST BOM_GUST BOM_GUST_PER REUNION_GUST REUNION_GUST_PER USA_SEAHGT USA_SEARAD_NE USA_SEARAD_SE USA_SEARAD_SW USA_SEARAD_NW STORM_SPEED STORM_DIR
1980329S08095 1981 101 SI WA BERT:CHRISTE 1980-11-24 06:00:00 TS -7.70000 95.0000 main 799 799 _________O__O_ -1 -7.70000 95.0000 TC 15 1007 -7.70000 95.0000 TC 15 1007 4 254
1980329S08095 1981 101 SI WA BERT:CHRISTE 1980-11-24 09:00:00 TS -7.75752 94.8000 main 820 820 _________P__P_ -1 -7.75752 94.8000 TC 15 1007 -7.75752 94.8000 TC 15 1007 4 256
1980329S08095 1981 101 SI WA BERT:CHRISTE 1980-11-24 12:00:00 TS -7.80000 94.6000 main 833 833 _________O__O_ -1 -7.80000 94.6000 TC 15 1007 -7.80000 94.6000 TC 15 1007 4 262
1980329S08095 1981 101 SI WA BERT:CHRISTE 1980-11-24 15:00:00 TS -7.81499 94.4000 main 846 846 _________P__P_ -1 -7.81499 94.4000 TC 15 1007 -7.81499 94.4000 TC 15 1007 4 270
1980329S08095 1981 101 SI WA BERT:CHRISTE 1980-11-24 18:00:00 TS -7.80000 94.2000 main 859 859 _________O__O_ -1 -7.80000 94.2000 TC 15 1007 -7.80000 94.2000 TC 15 1007 4 278
1980329S08095 1981 101 SI WA BERT:CHRISTE 1980-11-24 21:00:00 TS -7.75749 94.0000 main 873 864 _________P__P_ -1 -7.75749 94.0000 TC 15 1006 -7.75749 94.0000 TC 15 1006 4 284
1980329S08095 1981 101 SI WA BERT:CHRISTE 1980-11-25 00:00:00 TS -7.70000 93.8000 main 878 878 _________O__O_ -1 -7.70000 93.8000 TC 15 1006 -7.70000 93.8000 TC 15 1006 4 284
1980329S08095 1981 101 SI WA BERT:CHRISTE 1980-11-25 03:00:00 TS -7.65749 93.6000 main 892 884 _________P__P_ -1 -7.65749 93.6000 TC 15 1006 -7.65749 93.6000 TC 15 1006 4 284
1980329S08095 1981 101 SI WA BERT:CHRISTE 1980-11-25 06:00:00 TS -7.60000 93.4000 main 899 898 _________O__O_ -1 -7.60000 93.4000 TC 15 1006 -7.60000 93.4000 TC 15 1006 4 291
1980329S08095 1981 101 SI WA BERT:CHRISTE 1980-11-25 09:00:00 TS -7.50749 93.2000 main 906 906 _________P__P_ -1 -7.50749 93.2000 TC 17 1005 -7.50749 93.2000 TC 17 1005 4 297
1980329S08095 1981 101 SI WA BERT:CHRISTE 1980-11-25 12:00:00 TS -7.40000 93.0000 main 914 914 _________O__O_ -1 -7.40000 93.0000 TC 20 1005 -7.40000 93.0000 TC 20 1005 5 296
1980329S08095 1981 101 SI WA BERT:CHRISTE 1980-11-25 15:00:00 TS -7.30750 92.7925 main 922 922 _________P__P_ -1 -7.30750 92.7925 TC 22 1004 -7.30750 92.7925 TC 22 1004 4 297
1980329S08095 1981 101 SI WA BERT:CHRISTE 1980-11-25 18:00:00 TS -7.20000 92.6000 main 931 931 _________O__O_ -1 -7.20000 92.6000 TC 25 1003 -7.20000 92.6000 TC 25 1003 4 307
1980329S08095 1981 101 SI WA BERT:CHRISTE 1980-11-25 21:00:00 TS -7.05747 92.4575 main 932 932 _________P__P_ -1 -7.05747 92.4575 TC 27 1002 -7.05747 92.4575 TC 25 1002 4 315
1980329S08095 1981 101 SI WA BERT:CHRISTE 1980-11-26 00:00:00 TS -6.90000 92.3000 main 935 935 _________O__O_ -1 -6.90000 92.3000 TC 30 1001 -6.90000 92.3000 TC 25 1001 5 309
1980329S08095 1981 101 SI WA BERT:CHRISTE 1980-11-26 03:00:00 TS -6.74999 92.0725 main 939 939 _________P__P_ -1 -6.74999 92.0725 TC 30 1000 -6.74999 92.0725 TC 27 1000 6 301
1980329S08095 1981 101 SI WA BERT:CHRISTE 1980-11-26 06:00:00 TS -6.60000 91.8000 main 960 960 _________O__O_ -1 -6.60000 91.8000 TC 30 1000 -6.60000 91.8000 TC 30 1000 6 301
1980329S08095 1981 101 SI WA BERT:CHRISTE 1980-11-26 09:00:00 TS -6.43491 91.5450 main 975 975 _________P__P_ -1 -6.43491 91.5450 TC 32 999 -6.43491 91.5450 TC 32 999 7 297
1980329S08095 1981 101 SI WA BERT:CHRISTE 1980-11-26 12:00:00 TS -6.30000 91.2000 main 998 998 _________O__O_ -1 -6.30000 91.2000 TC 35 998 -6.30000 91.2000 TC 35 998 9 286
1980329S08095 1981 101 SI WA BERT:CHRISTE 1980-11-26 15:00:00 TS -6.18256 90.6799 main 1040 1040 _________P__P_ -1 -6.18256 90.6799 TC 35 997 -6.18256 90.6799 TC 35 997 11 275
1980329S08095 1981 101 SI WA BERT:CHRISTE 1980-11-26 18:00:00 TS -6.20000 90.1000 main 1097 1097 _________O__O_ -1 -6.20000 90.1000 TC 35 996 -6.20000 90.1000 TC 35 996 11 257
1980329S08095 1981 101 SI MM BERT:CHRISTE 1980-11-26 21:00:00 TS -6.43247 89.5776 main 1156 1156 _________P__P_ -1 -6.43247 89.5776 TC 37 994 -6.43247 89.5776 TC 37 994 12 239
1980329S08095 1981 101 SI MM BERT:CHRISTE 1980-11-27 00:00:00 TS -6.80000 89.1000 main 1227 1227 _________O__O_ -1 -6.80000 89.1000 TC 40 993 -6.80000 89.1000 TC 40 993 12 229
1980329S08095 1981 101 SI MM BERT:CHRISTE 1980-11-27 03:00:00 TS -7.22249 88.6551 main 1287 1287 _________P__P_ -1 -7.22249 88.6551 TC 42 991 -7.22249 88.6551 TC 42 991 11 225
1980329S08095 1981 101 SI MM BERT:CHRISTE 1980-11-27 06:00:00 TS -7.60000 88.3000 main 1348 1348 _________O__O_ -1 -7.60000 88.3000 TC 45 990 -7.60000 88.3000 TC 45 990 8 225
1980329S08095 1981 101 SI MM BERT:CHRISTE 1980-11-27 09:00:00 TS -7.80244 88.0624 main 1378 1378 _________P__P_ -1 -7.80244 88.0624 TC 47 988 -7.80244 88.0624 TC 50 988 5 233
1980329S08095 1981 101 SI MM BERT:CHRISTE 1980-11-27 12:00:00 TS -7.90000 87.9000 main 1403 1403 _________O__O_ -1 -7.90000 87.9000 TC 50 986 -7.90000 87.9000 TC 55 986 4 243
1980329S08095 1981 101 SI MM BERT:CHRISTE 1980-11-27 15:00:00 TS -7.96498 87.7425 main 1428 1428 _________P__P_ -1 -7.96498 87.7425 TC 55 983 -7.96498 87.7425 TC 57 983 3 251
1980329S08095 1981 101 SI MM BERT:CHRISTE 1980-11-27 18:00:00 TS -8.00000 87.6000 main 1437 1437 _________O__O_ -1 -8.00000 87.6000 TC 60 981 -8.00000 87.6000 TC 60 981 3 254
1980329S08095 1981 101 SI MM BERT:CHRISTE 1980-11-27 21:00:00 TS -8.04246 87.4725 main 1447 1447 _________P__P_ -1 -8.04246 87.4725 TC 60 979 -8.04246 87.4725 TC 62 979 3 251
1980329S08095 1981 101 SI MM BERT:CHRISTE 1980-11-28 00:00:00 TS -8.10000 87.3000 main 1472 1472 _________O__O_ -1 -8.10000 87.3000 TC 60 978 -8.10000 87.3000 TC 65 978 5 251
1980329S08095 1981 101 SI MM BERT:CHRISTE 1980-11-28 03:00:00 TS -8.20004 87.0150 main 1506 1506 _________P__P_ -1 -8.20004 87.0150 TC 62 976 -8.20004 87.0150 TC 67 976 6 251
1980329S08095 1981 101 SI MM BERT:CHRISTE 1980-11-28 06:00:00 TS -8.30000 86.7000 main 1540 1540 _________O__O_ -1 -8.30000 86.7000 TC 65 975 -8.30000 86.7000 TC 70 975 6 256
1980329S08095 1981 101 SI MM BERT:CHRISTE 1980-11-28 09:00:00 TS -8.34247 86.4424 main 1569 1569 _________P__P_ -1 -8.34247 86.4424 TC 67 974 -8.34247 86.4424 TC 70 974 5 259
1980329S08095 1981 101 SI MM BERT:CHRISTE 1980-11-28 12:00:00 TS -8.40000 86.2000 main 1593 1593 _________O__O_ -1 -8.40000 86.2000 TC 70 973 -8.40000 86.2000 TC 70 973 5 250
1980329S08095 1981 101 SI MM BERT:CHRISTE 1980-11-28 15:00:00 TS -8.52752 85.9275 main 1627 1627 _________P__P_ -1 -8.52752 85.9275 TC 70 972 -8.52752 85.9275 TC 72 972 6 239
1980329S08095 1981 101 SI MM BERT:CHRISTE 1980-11-28 18:00:00 TS -8.70000 85.7000 main 1658 1658 _________O__O_ -1 -8.70000 85.7000 TC 70 971 -8.70000 85.7000 TC 75 971 5 226
1980329S08095 1981 101 SI MM BERT:CHRISTE 1980-11-28 21:00:00 TS -8.87748 85.5550 main 1678 1678 _________P__P_ -1 -8.87748 85.5550 TC 72 969 -8.87748 85.5550 TC 77 969 4 206
1980329S08095 1981 101 SI MM BERT:CHRISTE 1980-11-29 00:00:00 TS -9.10000 85.5000 main 1699 1699 _________O__O_ -1 -9.10000 85.5000 TC 75 967 -9.10000 85.5000 TC 80 967 5 183
1980329S08095 1981 101 SI MM BERT:CHRISTE 1980-11-29 03:00:00 TS -9.39249 85.5125 main 1715 1715 _________P__P_ -1 -9.39249 85.5125 TC 75 966 -9.39249 85.5125 TC 80 966 6 171
1980329S08095 1981 101 SI MM BERT:CHRISTE 1980-11-29 06:00:00 TS -9.70000 85.6000 main 1723 1719 _________O__O_ -1 -9.70000 85.6000 TC 75 966 -9.70000 85.6000 TC 80 966 6 160
1980329S08095 1981 101 SI MM BERT:CHRISTE 1980-11-29 09:00:00 TS -9.96498 85.7200 main 1731 1721 _________P__P_ -1 -9.96498 85.7200 TC 77 965 -9.96498 85.7200 TC 80 965 6 149
1980329S08095 1981 101 SI MM BERT:CHRISTE 1980-11-29 12:00:00 TS -10.2000 85.9000 main 1724 1712 _________O__O_ -1 -10.2000 85.9000 TC 80 965 -10.2000 85.9000 TC 80 965 6 137
1980329S08095 1981 101 SI MM BERT:CHRISTE 1980-11-29 15:00:00 TS -10.4000 86.1350 main 1718 1704 _________P__P_ -1 -10.4000 86.1350 TC 80 965 -10.4000 86.1350 TC 80 965 6 129
1980329S08095 1981 101 SI MM BERT:CHRISTE 1980-11-29 18:00:00 TS -10.6000 86.4000 main 1704 1690 _________O__O_ -1 -10.6000 86.4000 TC 80 965 -10.6000 86.4000 TC 80 965 7 129
1980329S08095 1981 101 SI MM BERT:CHRISTE 1980-11-29 21:00:00 TS -10.8350 86.6800 main 1690 1686 _________P__P_ -1 -10.8350 86.6800 TC 77 965 -10.8350 86.6800 TC 80 965 7 135
1980329S08095 1981 101 SI MM BERT:CHRISTE 1980-11-30 00:00:00 TS -11.1000 86.9000 main 1693 1691 _________O__O_ -1 -11.1000 86.9000 TC 75 966 -11.1000 86.9000 TC 80 966 6 152
1980329S08095 1981 101 SI MM BERT:CHRISTE 1980-11-30 03:00:00 TS -11.4000 86.9876 main 1705 1705 _________P__P_ -1 -11.4000 86.9876 TC 75 966 -11.4000 86.9876 TC 80 966 6 171
1980329S08095 1981 101 SI MM BERT:CHRISTE 1980-11-30 06:00:00 TS -11.7000 87.0000 main 1726 1726 _________O__O_ -1 -11.7000 87.0000 TC 75 967 -11.7000 87.0000 TC 80 967 6 177
1980329S08095 1981 101 SI MM BERT:CHRISTE 1980-11-30 09:00:00 TS -11.9575 87.0150 main 1748 1748 _________P__P_ -1 -11.9575 87.0150 TC 75 967 -11.9575 87.0150 TC 77 967 5 178
1980329S08095 1981 101 SI MM BERT:CHRISTE 1980-11-30 12:00:00 TS -12.2000 87.0000 main 1762 1762 _________O__O_ -1 -12.2000 87.0000 TC 75 968 -12.2000 87.0000 TC 75 968 5 185
1980329S08095 1981 101 SI MM BERT:CHRISTE 1980-11-30 15:00:00 TS -12.4575 86.9725 main 1784 1784 _________P__P_ -1 -12.4575 86.9725 TC 72 969 -12.4575 86.9725 TC 75 969 5 191
1980329S08095 1981 101 SI MM BERT:CHRISTE 1980-11-30 18:00:00 TS -12.7000 86.9000 main 1807 1807 _________O__O_ -1 -12.7000 86.9000 TC 70 970 -12.7000 86.9000 TC 75 970 5 205
1980329S08095 1981 101 SI MM BERT:CHRISTE 1980-11-30 21:00:00 TS -12.9075 86.7575 main 1831 1831 _________P__P_ -1 -12.9075 86.7575 TC 70 971 -12.9075 86.7575 TC 72 971 5 216
1980329S08095 1981 101 SI MM BERT:CHRISTE 1980-12-01 00:00:00 TS -13.1000 86.6000 main 1862 1862 _________O__O_ -1 -13.1000 86.6000 TC 70 973 -13.1000 86.6000 TC 70 973 5 212
1980329S08095 1981 101 SI MM BERT:CHRISTE 1980-12-01 03:00:00 TS -13.3075 86.5000 main 1885 1885 _________P__P_ -1 -13.3075 86.5000 TC 67 974 -13.3075 86.5000 TC 70 974 4 206
1980329S08095 1981 101 SI MM BERT:CHRISTE 1980-12-01 06:00:00 TS -13.5000 86.4000 main 1908 1908 _________O__O_ -1 -13.5000 86.4000 TC 65 975 -13.5000 86.4000 TC 70 975 4 214
1980329S08095 1981 101 SI MM BERT:CHRISTE 1980-12-01 09:00:00 TS -13.6650 86.2575 main 1931 1931 _________P__P_ -1 -13.6650 86.2575 TC 65 975 -13.6650 86.2575 TC 70 975 4 224
1980329S08095 1981 101 SI MM BERT:CHRISTE 1980-12-01 12:00:00 TS -13.8000 86.1000 main 1954 1954 _________O__O_ -1 -13.8000 86.1000 TC 65 975 -13.8000 86.1000 TC 70 975 4 232
1980329S08095 1981 101 SI MM BERT:CHRISTE 1980-12-01 15:00:00 TS -13.9000 85.9500 main 1978 1978 _________P__P_ -1 -13.9000 85.9500 TC 65 975 -13.9000 85.9500 TC 70 975 4 236
1980329S08095 1981 101 SI MM BERT:CHRISTE 1980-12-01 18:00:00 TS -14.0000 85.8000 main 1993 1993 _________O__O_ -1 -14.0000 85.8000 TC 65 975 -14.0000 85.8000 TC 70 975 4 230
1980329S08095 1981 101 SI MM BERT:CHRISTE 1980-12-01 21:00:00 TS -14.1350 85.6649 main 2009 2009 _________P__P_ -1 -14.1350 85.6649 TC 65 975 -14.1350 85.6649 TC 70 975 4 224
1980329S08095 1981 101 SI MM BERT:CHRISTE 1980-12-02 00:00:00 TS -14.3000 85.5000 main 2040 2040 _________O__O_ -1 -14.3000 85.5000 TC 65 975 -14.3000 85.5000 TC 70 975 5 225
1980329S08095 1981 101 SI MM BERT:CHRISTE 1980-12-02 03:00:00 TS -14.4999 85.2875 main 2071 2071 _________P__P_ -1 -14.4999 85.2875 TC 65 975 -14.4999 85.2875 TC 70 975 6 230
1980329S08095 1981 101 SI MM BERT:CHRISTE 1980-12-02 06:00:00 TS -14.7000 85.0000 main 2110 2110 _________O__O_ -1 -14.7000 85.0000 TC 65 975 -14.7000 85.0000 TC 70 975 7 241
1980329S08095 1981 101 SI MM BERT:CHRISTE 1980-12-02 09:00:00 TS -14.8499 84.6448 main 2149 2149 _________P__P_ -1 -14.8499 84.6448 TC 65 975 -14.8499 84.6448 TC 70 975 9 249
1980329S08095 1981 101 SI MM BERT:CHRISTE 1980-12-02 12:00:00 TS -15.0250 84.1333 main 2205 2205 O____O___OO_O_ jtwc_sh SH031981 -15.1000 84.0000 -1 -15.0000 84.0000 3 9.90000 -15.0000 84.2000 TC 65 975 -15.1000 84.0000 1 -15.0000 84.2000 TC 70 975 11 244
1980329S08095 1981 101 SI MM BERT:CHRISTE 1980-12-02 15:00:00 TS -15.3181 83.6399 main 2267 2267 P____P___PP_P_ SH031981 -15.4701 83.6103 -1 -15.4451 83.6205 3 -15.1850 83.6724 TC 65 975 -15.4192 83.5883 1 -15.1850 83.6724 TC 70 975 11 237
1980329S08095 1981 101 SI MM BERT:CHRISTE 1980-12-02 18:00:00 TS -15.6296 83.1556 main 2322 2322 O____O___OP_O_ jtwc_sh SH031981 -15.8000 83.2000 -1 -15.8000 83.2000 99 9.90000 -15.4000 83.1000 TC 65 975 -15.7305 83.1708 1 -15.4000 83.1000 TC 70 975 11 237
1980329S08095 1981 101 SI MM BERT:CHRISTE 1980-12-02 21:00:00 TS -15.9119 82.6762 main 2384 2384 P____P___PP_P_ SH031981 -16.0649 82.7573 -1 -16.0150 82.7146 99 -15.6499 82.5425 TC 65 975 -16.0265 82.7429 1 -15.6499 82.5425 TC 70 975 11 241
1980329S08095 1981 101 SI MM BERT:CHRISTE 1980-12-03 00:00:00 TS -16.1500 82.1833 main 2439 2439 O____O___OO_O_ jtwc_sh SH031981 -16.3000 82.3000 -1 -16.2000 82.2000 99 9.90000 -15.9000 82.0000 TC 65 975 -16.3000 82.3000 1 -15.9000 82.0000 TC 70 975 11 242
1980329S08095 1981 101 SI MM BERT:CHRISTE 1980-12-03 03:00:00 TS -16.4029 81.7066 main 2501 2500 P____P___PP_P_ SH031981 -16.5724 81.8575 -1 -16.5149 81.7002 99 -16.1073 81.4923 TC 65 975 -16.5433 81.8394 1 -16.1073 81.4923 TC 70 975 10 242
1980329S08095 1981 101 SI MM BERT:CHRISTE 1980-12-03 06:00:00 TS -16.6386 81.2374 main 2500 2454 O____O___OP_O_ jtwc_sh SH031981 -16.8000 81.4000 -1 -16.8000 81.2000 99 9.90000 -16.3000 81.0000 TC 65 975 -16.7472 81.3652 1 -16.3000 81.0000 TC 70 975 10 246
1980329S08095 1981 101 SI MM BERT:CHRISTE 1980-12-03 09:00:00 TS -16.8143 80.7490 main 2443 2399 P____P___PP_P_ SH031981 -16.9375 80.8999 -1 -16.9449 80.6998 99 -16.4978 80.5028 TC 65 976 -16.9026 80.8833 1 -16.5075 80.4850 TC 67 976 10 253
1980329S08095 1981 101 SI MM BERT:CHRISTE 1980-12-03 12:00:00 TS -16.9286 80.2667 main 2399 2355 O____O___OO_O_ jtwc_sh SH031981 -17.0000 80.4000 -1 -17.0000 80.2000 3 9.90000 -16.7000 80.0000 TC 65 977 -17.0000 80.4000 1 -16.7000 80.0000 TC 65 977 9 259
1980329S08095 1981 101 SI MM BERT:CHRISTE 1980-12-03 15:00:00 TS -16.9926 79.8256 main 2345 2303 P____P____P_P_ SH031981 -17.0223 79.9499 -1 -17.0149 79.6999 3 TC -17.0240 79.9282 1 -16.8797 79.6000 TC 65 9 265
1980329S08095 1981 101 SI MM BERT:CHRISTE 1980-12-03 18:00:00 TS -16.9989 79.3713 reunion main 2303 2251 O____O____P_O_ jtwc_sh SH031981 -17.0000 79.5000 -1 -17.0000 79.2000 99 9.90000 -16.9944 79.4564 1 -17.0000 79.2000 TC 65 9 271
1980329S08095 1981 101 SI MM BERT:CHRISTE 1980-12-03 21:00:00 TS -16.9700 78.8762 main 2251 2202 P____P____P_P_ SH031981 -16.9424 79.0073 -1 -17.0000 78.6850 99 -16.9427 78.9815 1 -17.0226 78.6998 TC 65 10 274
1980329S08095 1981 101 SI MM BERT:CHRISTE 1980-12-04 00:00:00 TS -16.9400 78.3800 reunion main 2202 2158 O____O____O_O_ jtwc_sh SH031981 -16.9000 78.5000 -1 -17.0000 78.2000 99 9.90000 -16.9000 78.5000 1 -17.0000 78.2000 TC 65 9 271
1980329S08095 1981 101 SI MM BERT:CHRISTE 1980-12-04 03:00:00 TS -16.9619 77.9277 main 2148 2106 P____P____P_P_ SH031981 -16.9424 78.0002 -1 -16.9998 77.7850 99 -16.9253 78.0685 1 -16.9998 77.7850 TC 65 9 266
1980329S08095 1981 101 SI MM BERT:CHRISTE 1980-12-04 06:00:00 TS -16.9925 77.4841 reunion main 2106 2065 O____O____P_O_ jtwc_sh SH031981 -17.0000 77.5000 -1 -17.0000 77.4000 99 9.90000 -16.9625 77.6205 1 -17.0000 77.4000 TC 65 8 267
1980329S08095 1981 101 SI MM BERT:CHRISTE 1980-12-04 09:00:00 TS -17.0043 77.0615 main 2065 2013 P____P____P_P_ SH031981 -17.0145 77.0450 -1 -16.9995 77.0525 99 -16.9936 77.1123 1 -16.9995 77.0525 TC 65 9 270
1980329S08095 1981 101 SI MM BERT:CHRISTE 1980-12-04 12:00:00 TS -17.0000 76.5400 reunion main 2003 1931 O____O____O_O_ jtwc_sh SH031981 -17.0000 76.5000 -1 -17.0000 76.6000 3 9.90000 -17.0000 76.5000 1 -17.0000 76.6000 TC 65 12 271
1980329S08095 1981 101 SI MM BERT:CHRISTE 1980-12-04 15:00:00 TS -16.9872 75.8035 main 1931 1851 P____P____P_P_ SH031981 -16.9649 75.7675 -1 -17.0153 75.8951 3 -16.9759 75.6922 1 -17.0153 75.8951 TC 62 15 272
1980329S08095 1981 101 SI MM BERT:CHRISTE 1980-12-04 18:00:00 TS -16.9440 74.9575 reunion main 1851 1768 O____O____P_O_ jtwc_sh SH031981 -16.9000 74.9000 -1 -17.0000 75.1000 99 9.90000 -16.9202 74.7875 1 -17.0000 75.1000 TC 60 16 274
1980329S08095 1981 101 SI MM BERT:CHRISTE 1980-12-04 21:00:00 TS -16.8728 74.1070 main 1758 1682 P____P____P_P_ SH031981 -16.8155 73.9200 -1 -16.9519 74.4154 99 -16.8290 73.8640 1 -16.9519 74.4154 TC 57 16 277
1980329S08095 1981 101 SI MM BERT:CHRISTE 1980-12-05 00:00:00 TS -16.7400 73.2800 reunion main 1682 1617 O____O____O_O_ jtwc_sh SH031981 -16.7000 73.0000 -1 -16.8000 73.7000 99 9.90000 -16.7000 73.0000 1 -16.8000 73.7000 TC 55 15 283
1980329S08095 1981 101 SI MM BERT:CHRISTE 1980-12-05 03:00:00 TS -16.5201 72.5578 main 1617 1553 P____P____P_P_ SH031981 -16.5717 72.3553 -1 -16.4501 72.8567 99 -16.5570 72.3650 1 -16.4501 72.8567 TC 55 14 289
1980329S08095 1981 101 SI MM BERT:CHRISTE 1980-12-05 06:00:00 TS -16.2756 71.8778 reunion main 1553 1500 O____O____P_O_ jtwc_sh SH031981 -16.4000 71.8000 -1 -16.1000 72.0000 99 9.90000 -16.3778 71.7891 1 -16.1000 72.0000 TC 55 14 288
1980329S08095 1981 101 SI MM BERT:CHRISTE 1980-12-05 09:00:00 TS -16.1035 71.2172 main 1490 1429 P____P____P_P_ SH031981 -16.1793 71.2103 -1 -15.9996 71.2360 99 -16.1600 71.1936 1 -15.9996 71.2360 TC 55 14 286
1980329S08095 1981 101 SI MM BERT:CHRISTE 1980-12-05 12:00:00 TS -15.9000 70.5000 reunion main 1429 1363 O____O____O_O_ jtwc_sh SH031981 -15.9000 70.5000 -1 -15.9000 70.5000 3 9.90000 -15.9000 70.5000 1 -15.9000 70.5000 TC 55 16 290
1980329S08095 1981 101 SI MM BERT:CHRISTE 1980-12-05 15:00:00 TS -15.5634 69.6529 main 1363 1296 P____P____P_P_ SH031981 -15.5652 69.5523 -1 -15.5643 69.7872 3 -15.5579 69.5855 1 -15.5643 69.7872 TC 55 19 292
1980329S08095 1981 101 SI MM BERT:CHRISTE 1980-12-05 18:00:00 TS -15.1959 68.7144 reunion main 1287 1218 O____O____P_O_ jtwc_sh SH031981 -15.2000 68.5000 -1 -15.2000 69.0000 99 9.90000 -15.1793 68.5719 1 -15.2000 69.0000 TC 55 20 290
1980329S08095 1981 101 SI MM BERT:CHRISTE 1980-12-05 21:00:00 TS -14.8991 67.7139 main 1209 1138 P____P____P_P_ SH031981 -14.8423 67.4852 -1 -15.0000 68.0381 99 -14.8108 67.5227 1 -15.0000 68.0381 TC 55 20 286
1980329S08095 1981 101 SI MM BERT:CHRISTE 1980-12-06 00:00:00 TS -14.6200 66.7000 reunion main 1136 1077 O____O____O_O_ jtwc_sh SH031981 -14.5000 66.5000 -1 -14.8000 67.0000 99 9.90000 -14.5000 66.5000 1 -14.8000 67.0000 TC 55 20 288
1980329S08095 1981 101 SI MM BERT:CHRISTE 1980-12-06 03:00:00 TS -14.2722 65.7461 main 1069 1025 P____P____P_P_ SH031981 -14.1396 65.5773 -1 -14.4271 65.9994 99 -14.2278 65.5769 1 -14.4271 65.9994 TC 50 19 289
1980329S08095 1981 101 SI MM BERT:CHRISTE 1980-12-06 06:00:00 TS -14.0062 64.8179 reunion main 1017 956 O____O____P_O_ jtwc_sh SH031981 -13.9000 64.7000 -1 -14.1000 65.0000 99 9.90000 -14.0310 64.6893 1 -14.1000 65.0000 TC 45 18 281
1980329S08095 1981 101 SI MM BERT:CHRISTE 1980-12-06 09:00:00 TS -13.9226 63.8886 main 956 884 P____P____P_P_ SH031981 -13.8521 63.8426 -1 -13.9825 63.9629 99 -13.9437 63.8321 1 -13.9825 63.9629 TC 40 18 270
1980329S08095 1981 101 SI MM BERT:CHRISTE 1980-12-06 12:00:00 TS -14.0000 63.0000 reunion main 884 815 O____O____O_O_ jtwc_sh SH031981 -14.0000 63.0000 -1 -14.0000 63.0000 2 9.90000 -14.0000 63.0000 1 -14.0000 63.0000 TC 35 17 261
1980329S08095 1981 101 SI MM BERT:CHRISTE 1980-12-06 15:00:00 TS -14.1779 62.1635 main 815 739 P____P____P_P_ SH031981 -14.2974 62.1352 -1 -14.0320 62.1973 2 -14.2307 62.1522 1 -14.0320 62.1973 TC 35 16 253
1980329S08095 1981 101 SI MM BERT:CHRISTE 1980-12-06 18:00:00 TS -14.4799 61.3856 reunion main 739 673 O____O____P_O_ jtwc_sh SH031981 -14.7000 61.3000 -1 -14.2000 61.5000 99 9.90000 -14.5995 61.3278 1 -14.2000 61.5000 TC 35 16 245
1980329S08095 1981 101 SI MM BERT:CHRISTE 1980-12-06 21:00:00 TS -14.8645 60.6468 main 658 589 P____P____P_P_ SH031981 -15.0997 60.5199 -1 -14.5398 60.8275 99 -15.0435 60.5391 1 -14.5398 60.8275 TC 35 16 239
1980329S08095 1981 101 SI MM BERT:CHRISTE 1980-12-07 00:00:00 TS -15.3000 59.9600 reunion main 589 524 O____O____O_O_ jtwc_sh SH031981 -15.5000 59.8000 -1 -15.0000 60.2000 99 9.90000 -15.5000 59.8000 1 -15.0000 60.2000 TC 35 15 236
1980329S08095 1981 101 SI MM BERT:CHRISTE 1980-12-07 03:00:00 TS -15.7246 59.3302 main 520 459 P____P____P_P_ SH031981 -15.8497 59.1271 -1 -15.4844 59.6295 99 -15.9546 59.1377 1 -15.4844 59.6295 TC 32 15 235
1980329S08095 1981 101 SI MM BERT:CHRISTE 1980-12-07 06:00:00 TS -16.1596 58.7043 reunion main 448 392 O____O____P_O_ jtwc_sh SH031981 -16.2000 58.5000 -1 -16.0000 59.0000 99 9.90000 -16.3978 58.5216 1 -16.0000 59.0000 TC 30 16 234
1980329S08095 1981 101 SI MM BERT:CHRISTE 1980-12-07 09:00:00 TS -16.6534 58.0105 main 381 346 P____P____P_P_ SH031981 -16.6671 57.9080 -1 -16.5829 58.1585 99 -16.7672 57.9195 1 -16.5829 58.1585 TC 30 16 238
1980329S08095 1981 101 SI MM BERT:CHRISTE 1980-12-07 12:00:00 TS -17.0000 57.3000 reunion main 347 347 O____O____O_O_ jtwc_sh SH031981 -17.0000 57.3000 -1 -17.0000 57.3000 6 9.90000 -17.0000 57.3000 1 -17.0000 57.3000 TC 30 14 255
1980329S08095 1981 101 SI MM BERT:CHRISTE 1980-12-07 15:00:00 TS -17.0023 56.6224 main 359 359 P____P____P_P_ SH031981 -16.9824 56.6144 -1 -17.0469 56.6267 6 -16.9531 56.6298 1 -17.0469 56.6267 TC 30 13 277
1980329S08095 1981 101 SI MM BERT:CHRISTE 1980-12-07 18:00:00 TS -16.8358 55.9479 reunion main 405 405 O____O____P_O_ jtwc_sh SH031981 -16.8000 55.9000 -1 -16.9000 56.0000 99 9.90000 -16.7790 55.9394 1 -16.9000 56.0000 TC 30 13 286
1980329S08095 1981 101 SI MM BERT:CHRISTE 1980-12-07 21:00:00 TS -16.6387 55.2663 main 455 455 P____P____P_P_ SH031981 -16.5896 55.2142 -1 -16.7120 55.3368 99 -16.5904 55.2297 1 -16.7120 55.3368 TC 30 14 282
1980329S08095 1981 101 SI MM BERT:CHRISTE 1980-12-08 00:00:00 TS -16.5400 54.5400 reunion main 445 371 O____O____O_O_ jtwc_sh SH031981 -16.5000 54.5000 -1 -16.6000 54.6000 99 9.90000 -16.5000 54.5000 1 -16.6000 54.6000 TC 30 15 267
1980329S08095 1981 101 SI MM BERT:CHRISTE 1980-12-08 03:00:00 TS -16.7215 53.7011 main 371 308 P____P____P_P_ SH031981 -16.7400 53.7082 -1 -16.7253 53.7003 99 -16.6771 53.6884 1 -16.7253 53.7003 TC 30 17 253
1980329S08095 1981 101 SI MM BERT:CHRISTE 1980-12-08 06:00:00 TS -17.0323 52.8527 reunion main 308 249 O____O____P_O_ jtwc_sh SH031981 -17.1000 52.9000 -1 -17.0000 52.8000 99 9.90000 -16.9615 52.8637 1 -17.0000 52.8000 TC 30 17 248
1980329S08095 1981 101 SI MM BERT:CHRISTE 1980-12-08 09:00:00 TS -17.3500 52.0596 main 249 192 P____P____P_P_ SH031981 -17.3726 52.0975 -1 -17.3574 52.0105 99 -17.2899 52.0818 1 -17.3574 52.0105 TC 30 15 246
1980329S08095 1981 101 SI MM BERT:CHRISTE 1980-12-08 12:00:00 TS -17.6400 51.4000 reunion main 192 159 O____O____O_O_ jtwc_sh SH031981 -17.6000 51.4000 -1 -17.7000 51.4000 6 9.90000 -17.6000 51.4000 1 -17.7000 51.4000 TC 30 12 246
1980329S08095 1981 101 SI MM BERT:CHRISTE 1980-12-08 15:00:00 TS -17.8172 50.9535 main 159 118 P____P____P_P_ SH031981 -17.7571 50.8897 -1 -17.8870 51.0545 6 -17.7980 50.8789 1 -17.8870 51.0545 TC 30 8 247
1980329S08095 1981 101 SI MM BERT:CHRISTE 1980-12-08 18:00:00 TS -17.9541 50.6127 reunion main 121 95 O____O____P_O_ jtwc_sh SH031981 -17.9000 50.5000 -1 -18.0000 50.8000 99 9.90000 -17.9705 50.4637 1 -18.0000 50.8000 TC 30 7 247
1980329S08095 1981 101 SI MM BERT:CHRISTE 1980-12-08 21:00:00 TS -18.0975 50.2432 main 84 52 P____P____P_P_ SH031981 -18.0923 50.1349 -1 -18.0850 50.4148 99 -18.1329 50.1166 1 -18.0850 50.4148 TC 30 8 246
1980329S08095 1981 101 SI MM BERT:CHRISTE 1980-12-09 00:00:00 TS -18.2600 49.8800 reunion main 53 23 O____O____O_O_ jtwc_sh SH031981 -18.3000 49.8000 -1 -18.2000 50.0000 99 9.90000 -18.3000 49.8000 1 -18.2000 50.0000 TC 30 8 242
1980329S08095 1981 101 SI MM BERT:CHRISTE 1980-12-09 03:00:00 TS -18.4706 49.5194 main 23 0 P____P____P_P_ SH031981 -18.5000 49.4424 -1 -18.4348 49.6150 99 -18.4834 49.4823 1 -18.4348 49.6150 TC 30 8 238
1980329S08095 1981 101 SI MM BERT:CHRISTE 1980-12-09 06:00:00 TS -18.6962 49.1517 reunion main 0 0 O____O____P_O_ jtwc_sh SH031981 -18.7000 49.1000 -1 -18.7000 49.2000 99 9.90000 -18.6812 49.1586 1 -18.7000 49.2000 TC 30 8 239
1980329S08095 1981 101 SI MM BERT:CHRISTE 1980-12-09 09:00:00 TS -18.9049 48.7702 main 0 0 P____P____P_P_ SH031981 -18.9001 48.7901 -1 -18.9179 48.7202 99 -18.8884 48.8306 1 -18.9179 48.7202 TC 30 8 241
1980329S08095 1981 101 SI MM BERT:CHRISTE 1980-12-09 12:00:00 TS -19.1000 48.3800 reunion main 0 O____O____O_O_ jtwc_sh SH031981 -19.1000 48.5000 -1 -19.1000 48.2000 6 9.90000 -19.1000 48.5000 1 -19.1000 48.2000 TC 30 8 242

IBTrACS Databaseについて

本データベースは、米国NOAAが公開する1842年以降の世界の熱帯低気圧のベストトラックデータアーカイブInternational Best Track Archive for Climate Stewardship (IBTrACS)を、ウェブで閲覧しやすい形式に変換したものです。

最終更新日:2021-10-27